createdAt,value
2023-01-20T00:02:23.792Z,25.10
2023-01-20T00:12:32.161Z,29.20
2023-01-20T00:22:43.142Z,30.30
2023-01-20T00:32:50.792Z,34.90
2023-01-20T00:42:58.386Z,35.50
2023-01-20T00:53:05.570Z,28.60
2023-01-20T01:03:12.858Z,28.00
2023-01-20T01:13:20.118Z,30.00
2023-01-20T01:23:27.162Z,35.00
2023-01-20T01:33:35.291Z,38.60
2023-01-20T01:43:57.334Z,29.80
2023-01-20T01:54:07.993Z,32.00
2023-01-20T02:04:17.527Z,30.10
2023-01-20T02:14:28.700Z,32.40
2023-01-20T02:35:02.447Z,35.90
2023-01-20T02:45:14.656Z,35.10
2023-01-20T02:55:19.808Z,32.80
2023-01-20T03:05:30.713Z,33.30
2023-01-20T03:15:44.821Z,36.80
2023-01-20T03:25:53.171Z,35.70
2023-01-20T03:36:00.932Z,32.10
2023-01-20T03:46:06.538Z,33.10
2023-01-20T03:56:12.286Z,37.30
2023-01-20T04:06:22.715Z,33.50
2023-01-20T04:16:30.298Z,31.70
2023-01-20T04:26:37.465Z,31.50
2023-01-20T04:36:45.238Z,44.80
2023-01-20T04:46:51.324Z,43.90
2023-01-20T04:56:58.607Z,41.10
2023-01-20T05:07:05.735Z,55.00
2023-01-20T05:17:13.079Z,55.30
2023-01-20T05:27:20.370Z,52.40
2023-01-20T05:37:27.500Z,54.00
2023-01-20T05:47:34.655Z,42.10
2023-01-20T05:57:41.957Z,67.10
2023-01-20T06:07:49.958Z,63.10
2023-01-20T06:17:58.123Z,59.20
2023-01-20T06:28:04.807Z,75.90
2023-01-20T06:38:11.885Z,75.90
2023-01-20T06:48:19.203Z,80.70
2023-01-20T06:58:24.378Z,79.20
2023-01-20T07:08:31.786Z,83.30
2023-01-20T07:18:39.160Z,87.40
2023-01-20T07:28:46.996Z,74.70
2023-01-20T07:38:55.197Z,80.60
2023-01-20T07:49:02.499Z,78.50
2023-01-20T07:59:11.520Z,74.70
2023-01-20T08:09:17.467Z,90.30
2023-01-20T08:19:24.734Z,93.90
2023-01-20T08:29:33.892Z,78.40
2023-01-20T08:39:41.129Z,82.20
2023-01-20T08:49:48.380Z,125.60
2023-01-20T08:59:55.748Z,77.90
2023-01-20T09:10:03.181Z,58.20
2023-01-20T09:20:12.395Z,53.70
2023-01-20T09:30:18.837Z,48.70
2023-01-20T09:40:41.600Z,60.60
2023-01-20T09:51:04.517Z,58.80
2023-01-20T10:01:11.127Z,53.10
2023-01-20T10:11:22.168Z,47.70
2023-01-20T10:21:29.652Z,35.20
2023-01-20T10:31:40.158Z,34.20
2023-01-20T10:41:52.273Z,30.70
2023-01-20T10:52:00.106Z,35.90
2023-01-20T11:02:19.414Z,29.00
2023-01-20T11:12:30.318Z,22.30
2023-01-20T11:22:39.339Z,22.90
2023-01-20T11:32:47.164Z,26.10
2023-01-20T11:42:56.110Z,23.60
2023-01-20T11:53:13.107Z,21.50
2023-01-20T12:03:34.890Z,17.90
2023-01-20T12:13:56.504Z,20.80
2023-01-20T12:24:11.776Z,20.30
2023-01-20T12:34:18.846Z,15.00
2023-01-20T12:54:52.595Z,15.00
2023-01-20T13:05:20.198Z,17.40
2023-01-20T13:15:31.489Z,17.50
2023-01-20T13:25:40.978Z,14.90
2023-01-20T13:46:21.512Z,17.00
2023-01-20T13:56:30.654Z,16.90
2023-01-20T14:06:46.091Z,21.70
2023-01-20T14:16:54.093Z,17.30
2023-01-20T14:27:18.760Z,15.00
2023-01-20T14:37:26.027Z,19.70
2023-01-20T14:47:35.545Z,19.40
2023-01-20T14:57:44.806Z,20.00
2023-01-20T15:08:04.646Z,23.40
2023-01-20T15:18:28.262Z,21.00
2023-01-20T15:28:38.080Z,20.30
2023-01-20T15:38:45.735Z,18.60
2023-01-20T15:48:53.297Z,24.00
2023-01-20T15:59:00.992Z,24.80
2023-01-20T16:09:13.908Z,23.30
2023-01-20T16:19:21.290Z,26.20
2023-01-20T16:29:27.386Z,31.40
2023-01-20T16:39:34.781Z,24.20
2023-01-20T16:49:42.601Z,24.40
2023-01-20T16:59:49.271Z,28.90
2023-01-20T17:09:57.772Z,32.80
2023-01-20T17:20:06.627Z,32.80
2023-01-20T17:30:13.671Z,32.00
2023-01-20T17:40:21.148Z,40.00
2023-01-20T17:50:29.556Z,44.10
2023-01-20T18:00:37.222Z,33.50
2023-01-20T18:10:44.399Z,28.20
2023-01-20T18:20:52.024Z,36.80
2023-01-20T18:31:00.945Z,29.60
2023-01-20T18:41:08.376Z,30.00
2023-01-20T18:51:17.804Z,27.30
2023-01-20T19:01:27.952Z,27.10
2023-01-20T19:11:38.697Z,29.30
2023-01-20T19:31:52.239Z,30.10
2023-01-20T19:42:00.428Z,32.50
2023-01-20T19:52:06.916Z,28.60
2023-01-20T20:02:14.159Z,31.20
2023-01-20T20:12:21.434Z,30.90
2023-01-20T20:22:28.652Z,33.50
2023-01-20T20:32:35.878Z,27.90
2023-01-20T20:42:43.250Z,27.80
2023-01-20T20:52:50.929Z,26.20
2023-01-20T21:02:57.400Z,26.70
2023-01-20T21:13:08.435Z,29.00
2023-01-20T21:23:15.517Z,27.40
2023-01-20T21:33:22.836Z,30.20
2023-01-20T21:43:45.519Z,30.50
2023-01-20T21:53:52.321Z,27.90
2023-01-20T22:03:59.528Z,25.50
2023-01-20T22:14:07.306Z,29.30
2023-01-20T22:24:14.545Z,22.20
2023-01-20T22:34:22.360Z,22.80
2023-01-20T22:44:29.524Z,18.00
2023-01-20T22:54:36.482Z,17.70
2023-01-20T23:04:43.584Z,11.00
2023-01-20T23:15:02.993Z,11.00
2023-01-20T23:35:15.867Z,9.10
2023-01-20T23:45:23.042Z,10.80
2023-01-20T23:55:30.424Z,10.20
